Date,TemperatureHighF,TemperatureAvgF,TemperatureLowF,DewpointHighF,DewpointAvgF,DewpointLowF,HumidityHigh,HumidityAvg,HumidityLow,PressureMaxIn,PressureMinIn,WindSpeedMaxMPH,WindSpeedAvgMPH,GustSpeedMaxMPH,PrecipitationSumIn
2014-1-1,54.9,39.8,31.1,29.8,24.8,20.3,81,58,30,30.07,29.81,0,-999,0,0.00
2014-1-2,48.7,43.8,38.1,43.9,36.0,27.7,91,74,57,29.81,29.28,0,-999,0,0.00
2014-1-3,43.5,30.4,22.6,38.3,10.6,4.3,82,44,34,30.10,29.34,0,-999,0,0.00
2014-1-4,37.6,30.3,20.3,17.4,11.0,5.9,62,45,33,30.16,29.93,0,-999,0,0.00
2014-1-5,62.2,48.0,36.7,56.8,36.4,17.4,96,65,45,29.93,29.45,0,-999,0,0.00
2014-1-6,61.2,44.0,18.1,57.4,29.7,-5.6,95,60,33,29.84,29.34,0,-999,0,0.00
2014-1-7,26.2,18.2,10.8,1.0,-5.1,-11.6,40,35,32,30.13,29.84,0,-999,0,0.00
2014-1-8,43.2,27.9,15.4,14.0,6.3,-0.9,56,40,29,30.22,30.10,0,-999,0,0.00
2014-1-9,55.4,37.5,25.2,24.3,17.0,8.2,62,45,25,30.22,30.07,0,-999,0,0.00
2014-1-10,46.2,43.0,39.2,43.3,34.8,22.6,95,74,43,30.10,29.75,0,-999,0,0.00
2014-1-11,68.4,56.6,44.6,64.8,54.5,43.3,98,93,76,29.75,29.28,0,-999,0,0.00
2014-1-12,59.4,48.8,37.0,52.5,32.6,26.4,94,56,35,29.84,29.36,0,-999,0,0.00
2014-1-13,61.9,47.8,33.1,39.7,32.8,29.5,93,60,34,29.84,29.63,0,-999,0,0.00
2014-1-14,54.0,48.3,37.2,50.2,44.4,35.1,94,87,57,29.66,29.45,0,-999,0,0.00
2014-1-15,59.4,44.6,34.9,47.8,35.4,27.1,98,74,38,29.66,29.48,0,-999,0,0.00
2014-1-16,45.9,37.2,30.4,34.3,26.7,18.7,89,67,38,29.69,29.57,0,-999,0,0.00
2014-1-17,57.0,42.6,30.4,32.4,24.7,16.9,70,50,35,29.69,29.51,0,-999,0,0.00
2014-1-18,46.9,34.7,27.5,29.3,14.8,7.7,57,44,31,29.72,29.48,0,-999,0,0.00
2014-1-19,54.7,41.2,30.9,26.1,19.2,12.7,62,42,31,29.69,29.54,0,-999,0,0.00
2014-1-20,62.8,46.0,33.8,30.2,24.3,20.8,63,44,25,29.57,29.42,0,-999,0,0.00
2014-1-21,54.0,38.6,27.5,30.4,26.0,20.3,84,62,38,29.48,29.22,0,-999,0,0.00
2014-1-22,32.9,26.5,20.8,21.2,9.8,3.4,77,50,34,29.75,29.48,0,-999,0,0.00
2014-1-23,39.4,27.3,16.9,15.1,8.7,-0.8,73,47,31,30.07,29.72,0,-999,0,0.00
2014-1-24,28.6,20.1,12.6,2.3,-3.5,-8.7,37,35,31,30.28,29.90,0,-999,0,0.00
2014-1-25,40.6,30.1,18.3,13.3,4.8,-4.7,39,34,31,29.90,29.31,0,-999,0,0.00
2014-1-26,52.0,39.9,23.7,22.5,15.7,10.0,59,38,26,29.66,29.45,0,-999,0,0.00
2014-1-27,65.1,50.5,34.5,34.9,26.3,7.2,48,39,30,29.75,29.42,0,-999,0,0.00
2014-1-28,34.5,27.6,18.5,11.8,4.6,0.3,70,38,30,29.99,29.75,0,-999,0,0.00
2014-1-29,32.2,22.4,15.3,11.1,6.1,-0.2,69,50,35,30.01,29.78,0,-999,0,0.00
2014-1-30,38.7,22.5,7.5,10.6,3.3,-5.6,64,44,30,30.07,29.87,0,-999,0,0.00
2014-1-31,51.4,31.2,14.7,19.6,12.2,5.0,72,48,27,29.90,29.78,0,-999,0,0.00
2014-2-1,59.9,40.1,23.9,40.5,23.8,14.0,89,56,25,29.93,29.75,0,-999,0,0.00
2014-2-2,63.5,51.4,43.3,48.7,43.0,39.4,96,75,44,29.78,29.69,0,-999,0,0.00
2014-2-3,62.8,51.3,40.8,60.8,46.3,33.4,98,83,73,29.93,29.54,0,-999,0,0.00
2014-2-4,40.8,39.3,38.3,37.2,33.9,32.0,94,81,72,30.04,29.75,0,-999,0,0.00
2014-2-5,51.8,43.4,38.5,49.6,40.6,26.4,98,91,53,29.75,29.45,0,-999,0,0.00
2014-2-6,45.1,38.5,32.2,27.5,21.3,18.7,61,50,39,29.96,29.72,0,-999,0,0.00
2014-2-7,53.1,41.3,35.1,28.2,24.6,20.8,68,52,37,30.01,29.87,0,-999,0,0.00
2014-2-8,50.5,40.0,32.5,29.5,25.6,21.9,74,58,37,29.93,29.78,0,-999,0,0.00
2014-2-9,55.9,40.8,28.6,37.4,29.9,23.0,85,67,41,29.84,29.63,0,-999,0,0.00
2014-2-10,42.1,37.4,35.2,34.2,30.1,22.5,87,76,47,29.90,29.66,0,-999,0,0.00
2014-2-11,35.4,32.4,28.9,31.8,19.3,10.2,87,60,43,30.04,29.87,0,-999,0,0.00
2014-2-12,30.6,26.5,23.5,28.8,14.1,7.2,93,62,42,30.07,29.45,0,-999,0,0.00
2014-2-13,35.8,32.9,30.4,33.4,30.8,28.4,96,92,80,29.45,29.10,0,-999,0,0.00
2014-2-14,58.5,42.6,29.8,31.1,27.5,23.2,85,59,27,29.48,29.34,0,-999,0,0.00
2014-2-15,46.9,39.3,30.7,38.7,27.7,12.9,93,66,33,29.72,29.22,0,-999,0,0.00
2014-2-16,52.5,39.1,31.1,27.0,19.7,13.8,67,46,33,29.81,29.66,0,-999,0,0.00
2014-2-17,47.7,36.8,26.8,23.0,19.9,16.5,77,52,33,30.04,29.81,0,-999,0,0.00
2014-2-18,65.3,48.1,36.1,36.1,26.7,19.8,69,46,23,29.87,29.75,0,-999,0,0.00
2014-2-19,70.9,56.5,42.1,57.7,49.1,26.6,98,78,53,29.75,29.57,0,-999,0,0.00
2014-2-20,72.0,61.0,49.1,58.6,45.5,34.5,93,59,35,29.87,29.69,0,-999,0,0.00
2014-2-21,71.4,60.2,40.6,60.8,53.5,37.4,93,79,59,29.72,29.51,0,-999,0,0.00
2014-2-22,64.4,47.4,34.7,43.5,31.7,23.5,96,61,24,29.87,29.72,0,-999,0,0.00
2014-2-23,68.0,51.6,35.1,39.7,32.0,25.9,80,51,27,29.78,29.57,0,-999,0,0.00
2014-2-24,61.2,50.9,38.1,38.7,26.7,16.0,65,41,25,29.81,29.54,0,-999,0,0.00
2014-2-25,57.9,41.9,30.4,24.8,19.2,15.4,61,41,27,29.78,29.60,0,-999,0,0.00
2014-2-26,47.8,39.7,31.3,24.4,19.8,15.1,53,45,36,29.66,29.42,0,-999,0,0.00
2014-2-27,55.6,38.8,24.1,22.5,15.8,11.3,61,41,26,29.66,29.39,0,-999,0,0.00
2014-2-28,46.4,37.1,28.0,16.5,11.4,5.7,42,34,28,29.96,29.66,0,-999,0,0.00
2014-3-1,54.9,41.0,30.6,30.9,19.9,8.1,69,43,36,30.01,29.87,0,-999,0,0.00
2014-3-2,70.5,53.9,34.9,41.7,35.6,27.9,85,54,32,29.90,29.60,0,-999,0,0.00
2014-3-3,61.0,40.8,21.9,43.7,31.2,9.0,84,70,48,29.93,29.51,0,-999,0,0.00
2014-3-4,39.4,28.5,17.6,15.8,9.7,2.8,58,45,34,30.01,29.87,0,-999,0,0.00
2014-3-5,45.1,36.6,30.2,18.5,14.5,10.6,55,40,33,29.93,29.78,0,-999,0,0.00
2014-3-6,43.7,36.1,30.6,31.1,20.5,11.5,91,55,38,30.04,29.75,0,-999,0,0.00
2014-3-7,36.7,34.6,32.2,36.0,33.1,29.8,97,94,90,29.75,29.51,0,-999,0,0.00
2014-3-8,68.0,47.9,28.9,44.6,35.3,27.0,98,67,33,29.75,29.60,0,-999,0,0.00
2014-3-9,67.5,51.5,39.0,45.7,36.1,30.7,88,60,29,29.75,29.63,0,-999,0,0.00
2014-3-10,73.8,54.2,34.2,44.1,31.9,26.8,87,50,21,29.69,29.48,0,-999,0,0.00
2014-3-11,79.7,61.5,42.4,43.0,35.1,30.7,73,41,21,29.51,29.36,0,-999,0,0.00
2014-3-12,68.7,60.3,44.6,56.1,45.6,24.1,83,59,42,29.39,28.95,0,-999,0,0.00
2014-3-13,46.2,39.7,30.2,25.0,14.9,8.8,48,36,28,29.87,29.31,0,-999,0,0.00
2014-3-14,61.3,44.2,25.7,28.8,18.0,11.8,60,38,21,29.99,29.75,0,-999,0,0.00
2014-3-15,73.6,59.3,48.2,36.7,32.7,28.4,58,39,23,29.75,29.63,0,-999,0,0.00
2014-3-16,56.5,47.5,38.3,41.7,33.5,25.9,87,61,32,29.72,29.51,0,-999,0,0.00
2014-3-17,37.9,34.1,32.2,34.3,30.4,28.6,90,86,79,29.63,29.48,0,-999,0,0.00
2014-3-18,37.6,34.4,31.1,35.8,32.4,28.8,96,92,88,29.81,29.60,0,-999,0,0.00
2014-3-19,48.4,41.5,35.8,45.3,39.1,34.2,96,91,83,29.84,29.63,0,-999,0,0.00
2014-3-20,68.4,52.9,41.0,49.5,35.6,25.7,98,60,24,29.72,29.57,0,-999,0,0.00
2014-3-21,69.4,52.5,32.2,36.3,28.6,25.2,79,45,23,29.84,29.72,0,-999,0,0.00
2014-3-22,78.1,61.6,48.7,41.7,35.2,27.7,67,40,22,29.75,29.60,0,-999,0,0.00
2014-3-23,60.4,47.6,37.6,40.8,36.3,28.4,86,67,35,29.81,29.54,0,-999,0,0.00
2014-3-24,51.6,41.3,30.9,35.2,24.9,19.4,88,56,30,29.96,29.75,0,-999,0,0.00
2014-3-25,47.5,40.6,35.2,34.5,26.6,18.9,78,58,42,29.75,29.42,0,-999,0,0.00
2014-3-26,48.6,38.6,30.7,26.2,15.5,10.4,70,40,28,29.99,29.60,0,-999,0,0.00
2014-3-27,59.4,43.6,25.3,32.5,19.4,13.1,69,41,24,30.10,29.93,0,-999,0,0.00
2014-3-28,69.3,57.2,44.2,55.9,46.0,31.1,92,67,47,29.93,29.78,0,-999,0,0.00
2014-3-29,66.4,61.3,56.5,63.7,59.4,55.0,97,94,87,29.81,29.28,0,-999,0,0.00
2014-3-30,63.0,49.2,42.8,61.2,33.7,25.0,94,57,37,29.63,29.28,0,-999,0,0.00
2014-3-31,72.0,55.5,37.9,30.9,26.7,21.9,57,35,21,29.78,29.60,0,-999,0,0.00
2014-4-1,80.6,60.0,39.6,43.2,33.5,28.0,74,42,20,29.81,29.69,0,-999,0,0.00
2014-4-2,88.2,68.9,49.6,43.7,37.0,32.0,56,34,18,29.78,29.69,0,-999,0,0.00
2014-4-3,77.7,65.4,52.5,48.6,41.6,34.5,57,43,31,29.75,29.60,0,-999,0,0.00
2014-4-4,82.9,70.0,56.3,53.2,47.6,40.1,73,47,23,29.60,29.45,0,-999,0,0.00
2014-4-5,73.6,64.6,54.1,50.2,37.9,27.0,72,40,24,29.78,29.48,0,-999,0,0.00
2014-4-6,61.9,55.1,47.3,34.5,28.7,23.9,49,36,29,29.87,29.78,0,-999,0,0.00
2014-4-7,63.1,51.8,44.1,60.8,45.3,29.5,98,81,40,29.78,29.36,0,-999,0,0.00
2014-4-8,67.3,63.0,55.6,62.2,51.0,35.8,96,68,40,29.39,29.28,0,-999,0,0.00
2014-4-9,70.7,58.1,48.4,46.9,37.8,32.0,82,49,27,29.78,29.39,0,-999,0,0.00
2014-4-10,75.6,59.5,39.9,46.0,36.0,31.8,84,48,23,29.93,29.78,0,-999,0,0.00
2014-4-11,80.8,67.2,54.7,44.2,39.6,36.7,54,38,22,29.93,29.75,0,-999,0,0.00
2014-4-12,83.3,69.9,57.0,48.4,44.2,39.9,64,42,23,29.90,29.81,0,-999,0,0.00
2014-4-13,82.8,70.9,60.6,57.9,50.3,45.5,77,50,33,29.93,29.81,0,-999,0,0.00
2014-4-14,77.0,67.9,62.4,63.0,56.0,49.6,90,68,41,29.81,29.54,0,-999,0,0.00
2014-4-15,70.7,61.8,41.5,66.6,56.8,28.6,96,84,50,29.69,29.34,0,-999,0,0.00
2014-4-16,56.7,44.9,34.3,28.9,23.4,18.7,61,44,28,30.10,29.69,0,-999,0,0.00
2014-4-17,65.1,50.2,33.6,36.5,28.8,22.5,73,46,27,30.19,30.07,0,-999,0,0.00
2014-4-18,65.3,52.0,40.6,44.4,35.8,31.6,77,56,36,30.13,29.90,0,-999,0,0.00
2014-4-19,52.9,50.3,46.9,47.8,44.8,41.0,92,82,65,29.90,29.81,0,-999,0,0.00
2014-4-20,69.6,58.2,49.1,43.0,37.7,30.0,76,48,34,29.93,29.84,0,-999,0,0.00
2014-4-21,75.0,58.3,43.3,38.3,32.3,27.7,59,40,21,29.90,29.63,0,-999,0,0.00
2014-4-22,85.3,65.0,48.2,51.4,43.5,35.6,74,49,24,29.63,29.39,0,-999,0,0.00
2014-4-23,72.9,63.0,51.6,52.9,37.8,25.3,82,45,22,29.69,29.39,0,-999,0,0.00
2014-4-24,72.0,57.8,41.0,40.1,32.5,28.9,71,41,23,29.81,29.69,0,-999,0,0.00
2014-4-25,82.2,63.2,50.2,66.4,51.9,34.9,87,68,40,29.69,29.36,0,-999,0,0.00
2014-4-26,80.6,66.0,51.3,54.0,44.9,36.5,90,53,23,29.72,29.54,0,-999,0,0.00
2014-4-27,86.2,69.4,51.6,51.6,44.7,39.0,77,44,22,29.69,29.60,0,-999,0,0.00
2014-4-28,69.4,61.8,56.7,55.2,49.1,41.7,80,63,54,29.72,29.60,0,-999,0,0.00
2014-4-29,64.8,58.7,54.0,59.5,54.6,49.8,95,86,79,29.72,29.63,0,-999,0,0.00
2014-4-30,77.0,70.7,61.0,70.7,67.1,59.5,98,89,73,29.72,29.60,0,-999,0,0.00
2014-5-1,79.5,71.0,64.9,67.1,60.2,51.4,89,71,42,29.63,29.51,0,-999,0,0.00
2014-5-2,68.9,61.7,53.8,58.8,45.0,36.9,87,57,33,29.66,29.54,0,-999,0,0.00
2014-5-3,77.2,64.7,54.9,51.8,44.6,38.1,76,51,27,29.63,29.54,0,-999,0,0.00
2014-5-4,83.7,68.4,49.8,49.6,44.4,40.1,81,46,25,29.66,29.54,0,-999,0,0.00
2014-5-5,75.9,65.4,56.8,50.9,47.2,41.2,80,53,37,29.75,29.57,0,-999,0,0.00
2014-5-6,84.6,69.9,57.7,57.6,53.1,49.1,76,58,32,29.72,29.54,0,-999,0,0.00
2014-5-7,76.6,67.9,60.8,61.9,58.5,53.8,85,72,58,29.84,29.69,0,-999,0,0.00
2014-5-8,90.5,74.4,58.6,65.1,54.9,47.1,96,58,23,29.90,29.78,0,-999,0,0.00
2014-5-9,86.5,70.8,64.8,63.3,57.6,52.2,87,64,31,29.87,29.78,0,-999,0,0.00
2014-5-10,85.8,73.2,65.5,66.2,59.5,49.3,88,65,33,29.84,29.72,0,-999,0,0.00
2014-5-11,86.2,72.6,61.3,63.7,56.4,51.3,86,60,34,29.87,29.75,0,-999,0,0.00
2014-5-12,90.9,74.6,60.1,67.1,57.8,52.2,91,60,30,29.90,29.81,0,-999,0,0.00
2014-5-13,92.1,78.9,68.5,67.8,62.1,53.4,87,60,29,29.87,29.81,0,-999,0,0.00
2014-5-14,89.1,78.2,69.4,66.0,60.5,53.4,81,57,36,29.87,29.78,0,-999,0,0.00
2014-5-15,76.8,70.4,66.9,68.7,64.7,57.7,97,83,60,29.81,29.54,0,-999,0,0.00
2014-5-16,73.4,64.0,57.0,68.5,57.4,45.7,97,81,39,29.63,29.51,0,-999,0,0.00
2014-5-18,66.9,61.7,51.6,45.0,42.2,39.0,75,50,37,29.90,29.84,0,-999,0,0.00
2014-5-19,73.6,59.4,46.9,52.7,42.4,37.6,88,58,32,29.99,29.87,0,-999,0,0.00
2014-5-20,79.3,65.8,51.6,52.2,48.1,43.2,81,55,35,29.96,29.81,0,-999,0,0.00
2014-5-21,88.0,74.9,63.1,60.8,55.4,50.2,71,52,32,29.81,29.63,0,-999,0,0.00
2014-5-22,88.9,76.6,67.6,62.6,59.3,55.0,79,57,33,29.66,29.54,0,-999,0,0.00
2014-5-23,82.4,71.8,64.4,63.5,56.7,46.8,86,62,31,29.75,29.60,0,-999,0,0.00
2014-5-24,80.4,68.0,55.0,50.5,45.9,42.8,73,47,30,29.84,29.69,0,-999,0,0.00
2014-5-25,81.0,68.3,55.6,57.7,51.4,47.7,84,58,33,29.93,29.84,0,-999,0,0.00
2014-5-26,87.3,74.7,62.8,60.4,57.3,54.0,82,57,34,29.93,29.81,0,-999,0,0.00
2014-5-27,89.8,75.7,69.3,66.4,62.8,57.0,84,66,38,29.84,29.72,0,-999,0,0.00
2014-5-28,90.3,77.2,66.2,66.9,63.2,56.3,91,66,36,29.75,29.69,0,-999,0,0.00
2014-5-29,75.4,71.0,67.1,64.8,62.2,58.1,84,74,61,29.87,29.75,0,-999,0,0.00
2014-5-30,74.7,69.7,65.7,65.8,62.9,60.8,88,79,68,29.87,29.78,0,-999,0,0.00
2014-5-31,84.2,71.9,65.3,63.9,56.2,47.8,90,62,31,29.93,29.84,0,-999,0,0.00
2014-6-1,80.4,68.1,56.3,52.2,46.0,42.1,75,48,30,30.04,29.93,0,-999,0,0.00
2014-6-2,82.4,67.8,53.6,52.5,48.2,43.2,77,52,32,29.99,29.84,0,-999,0,0.00
2014-6-3,86.5,72.2,58.3,63.5,56.5,51.8,79,60,37,29.84,29.63,0,-999,0,0.00
2014-6-4,92.1,77.2,66.4,66.0,63.1,57.4,90,65,33,29.63,29.48,0,-999,0,0.00
2014-6-5,90.9,79.5,70.5,72.1,65.5,59.5,87,64,39,29.54,29.42,0,-999,0,0.00
2014-6-6,82.8,74.7,68.5,67.8,61.3,55.0,89,65,41,29.69,29.54,0,-999,0,0.00
2014-6-7,85.1,72.9,63.5,65.5,59.5,52.7,90,66,34,29.75,29.66,0,-999,0,0.00
2014-6-8,88.0,75.5,65.7,62.8,58.3,54.7,82,57,35,29.69,29.60,0,-999,0,0.00
2014-6-9,88.2,77.2,70.2,68.2,63.8,57.4,88,64,46,29.63,29.57,0,-999,0,0.00
2014-6-10,90.7,78.6,68.4,72.7,66.8,60.1,95,71,37,29.69,29.60,0,-999,0,0.00
2014-6-11,92.8,77.5,69.8,69.4,65.7,56.3,91,69,38,29.72,29.57,0,-999,0,0.00
2014-6-12,82.9,73.8,68.7,75.4,68.6,64.8,96,84,65,29.66,29.54,0,-999,0,0.00
2014-6-13,84.2,74.8,67.8,73.0,66.4,62.2,94,77,50,29.60,29.54,0,-999,0,0.00
2014-6-14,85.5,74.8,64.8,66.4,60.4,48.4,85,63,39,29.78,29.57,0,-999,0,0.00
2014-6-15,86.5,72.8,59.7,68.0,60.5,54.5,92,68,41,29.90,29.78,0,-999,0,0.00
2014-6-16,91.9,80.4,69.8,70.5,65.3,58.8,91,64,35,29.90,29.81,0,-999,0,0.00
2014-6-17,93.7,80.2,71.1,70.7,66.1,60.4,88,65,37,29.87,29.81,0,-999,0,0.00
2014-6-18,95.4,82.6,71.8,70.3,64.5,58.6,80,57,31,29.81,29.75,0,-999,0,0.00
2014-6-19,95.5,84.0,73.9,68.9,63.6,58.8,74,52,32,29.81,29.69,0,-999,0,0.00
2014-6-20,90.0,77.6,70.2,72.0,67.5,61.7,92,74,41,29.75,29.66,0,-999,0,0.00
2014-6-21,89.8,78.3,70.0,73.6,68.9,63.3,94,75,44,29.66,29.54,0,-999,0,0.00
2014-6-22,82.6,74.6,70.2,70.2,67.3,64.2,90,79,59,29.69,29.51,0,-999,0,0.00
2014-6-23,86.0,75.3,66.4,65.7,61.7,56.8,90,65,39,29.84,29.69,0,-999,0,0.00
2014-6-24,86.4,76.9,67.6,67.8,63.8,59.7,83,65,45,29.87,29.75,0,-999,0,0.00
2014-6-25,92.3,79.8,73.6,71.6,68.2,60.4,89,71,38,29.75,29.60,0,-999,0,0.00
2014-6-26,92.5,80.4,70.3,69.8,65.0,55.6,91,63,31,29.69,29.63,0,-999,0,0.00
2014-6-27,86.9,76.1,71.2,73.0,67.9,62.1,91,77,51,29.81,29.66,0,-999,0,0.00
2014-6-28,86.5,77.1,71.2,69.4,64.0,50.5,90,67,42,29.93,29.81,0,-999,0,0.00
2014-6-29,87.4,74.4,62.8,59.2,54.7,49.6,82,53,29,29.93,29.84,0,-999,0,0.00
2014-6-30,89.8,78.4,68.0,64.0,60.5,57.7,78,56,38,29.84,29.69,0,-999,0,0.00
2014-7-1,92.1,81.4,74.1,68.4,63.5,61.3,74,56,38,29.72,29.63,0,-999,0,0.00
2014-7-2,97.2,85.2,75.2,68.2,65.3,61.9,70,53,33,29.75,29.63,0,-999,0,0.00
2014-7-3,90.7,80.3,75.2,72.9,67.9,59.2,87,67,41,29.78,29.63,0,-999,0,0.00
2014-7-4,88.7,78.2,71.6,65.8,57.4,49.6,75,51,31,29.93,29.63,0,-999,0,0.00
2014-7-5,85.8,73.7,62.4,51.8,47.7,43.0,66,42,24,30.04,29.93,0,-999,0,0.00
2014-7-6,89.2,75.9,63.5,60.3,53.9,48.4,79,49,28,29.96,29.75,0,-999,0,0.00
2014-7-7,94.1,81.0,69.4,67.5,60.0,53.2,84,53,27,29.78,29.66,0,-999,0,0.00
2014-7-8,98.1,85.4,73.9,68.4,59.4,46.8,79,47,19,29.75,29.60,0,-999,0,0.00
2014-7-9,95.2,81.8,75.4,67.8,62.3,57.0,77,53,30,29.75,29.63,0,-999,0,0.00
2014-7-10,87.3,77.1,71.2,70.9,67.2,62.4,91,73,48,29.81,29.69,0,0,0,0.00
2014-7-11,84.6,75.5,70.7,70.2,67.3,62.2,94,78,49,29.90,29.81,0,0,0,0.00
2014-7-12,91.2,78.4,67.6,71.4,63.7,55.2,92,65,33,29.93,29.84,0,0,0,0.00
2014-7-13,95.2,82.4,72.0,70.3,64.0,53.1,88,58,25,29.84,29.72,0,0,0,0.00
2014-7-14,97.3,83.3,75.0,73.4,67.7,61.3,80,62,32,29.75,29.60,0,0,0,0.00
2014-7-15,92.5,78.6,70.3,75.0,69.5,64.0,94,75,45,29.60,29.51,0,0,0,0.00
2014-7-16,78.1,72.6,67.3,70.3,64.8,55.4,96,78,48,29.66,29.51,0,0,0,0.00
2014-7-17,84.6,72.5,62.6,61.9,58.2,52.9,91,64,38,29.81,29.63,0,0,0,0.00
2014-7-18,86.0,74.7,64.4,64.8,56.1,48.4,89,56,30,29.90,29.81,0,0,0,0.00
2014-7-19,83.8,74.0,68.2,60.3,55.9,49.1,71,55,32,29.87,29.81,0,0,0,0.00
2014-7-20,80.6,73.4,68.9,70.5,64.7,58.3,90,75,61,29.84,29.75,0,0,0,0.00
2014-7-21,76.6,74.2,71.2,73.4,71.3,68.9,95,91,83,29.87,29.75,0,0,0,0.00
2014-7-22,80.8,74.6,70.9,76.6,71.7,69.4,97,91,76,29.87,29.81,0,0,0,0.00
2014-7-23,90.3,79.7,70.7,75.0,69.6,64.0,97,74,43,29.81,29.63,0,0,0,0.00
2014-7-24,88.5,78.1,69.3,73.0,69.4,63.9,93,76,48,29.66,29.57,0,0,0,0.00
2014-7-25,82.2,73.2,67.5,69.3,66.0,62.1,96,80,54,29.78,29.66,0,0,0,0.00
2014-7-26,88.0,77.6,69.8,72.1,68.4,63.1,95,76,45,29.75,29.66,0,0,0,0.00
2014-7-27,85.8,78.5,73.4,72.9,68.6,66.2,90,73,54,29.69,29.48,0,0,0,0.00
2014-7-28,88.7,80.3,72.5,68.0,59.3,52.7,69,50,35,29.57,29.42,0,0,0,0.00
2014-7-29,83.1,73.3,66.0,57.4,53.6,49.3,68,52,32,29.72,29.57,0,0,0,0.00
2014-7-30,82.0,71.9,64.8,64.6,60.1,56.5,80,67,45,29.81,29.69,0,0,0,0.00
2014-7-31,81.3,73.8,68.2,70.0,64.0,60.3,89,73,50,29.84,29.78,0,0,0,0.00
2014-8-1,74.7,69.2,65.5,70.0,65.4,56.8,96,88,57,29.84,29.78,0,0,0,0.00
2014-8-2,69.3,67.1,64.9,68.4,66.1,64.0,98,97,95,29.84,29.78,0,0,0,0.00
2014-8-3,75.9,70.4,67.8,71.2,68.2,66.2,98,93,79,29.84,29.75,0,0,0,0.00
2014-8-4,82.0,73.7,68.4,70.5,66.9,61.9,98,81,54,29.81,29.75,0,0,0,0.00
2014-8-5,86.9,75.8,68.4,73.2,66.3,61.0,97,75,43,29.78,29.69,0,0,0,0.00
2014-8-6,89.1,78.5,71.8,69.8,64.1,54.5,89,65,32,29.69,29.63,0,0,0,0.00
2014-8-7,86.7,76.6,69.4,67.5,65.2,62.2,88,69,48,29.75,29.63,0,0,0,0.00
2014-8-8,79.2,73.7,68.5,69.3,65.0,60.4,93,75,54,29.84,29.72,0,0,0,0.00
2014-8-9,73.9,67.6,64.8,67.5,64.8,62.2,97,91,68,29.84,29.75,0,0,0,0.00
2014-8-10,77.9,71.1,65.8,68.9,66.1,64.8,98,85,67,29.84,29.75,0,0,0,0.00
2014-8-11,80.2,73.0,70.0,69.8,67.3,64.9,92,83,60,30.22,29.69,0,0,0,0.00
2014-8-12,85.5,74.6,69.4,73.4,70.1,65.8,97,87,62,29.69,29.51,0,0,0,0.00
2014-8-13,81.3,73.7,67.6,71.6,63.3,54.1,97,73,42,29.72,29.51,0,0,0,0.00
2014-8-14,82.9,70.7,60.1,60.8,54.9,47.5,90,61,31,29.78,29.69,0,0,0,0.00
2014-8-15,84.2,73.0,62.2,65.7,60.5,56.5,90,67,42,29.75,29.66,0,0,0,0.00
2014-8-16,87.8,77.0,68.5,68.7,64.0,57.9,90,67,39,29.75,29.66,0,0,0,0.00
2014-8-17,88.7,78.0,71.1,70.0,66.7,59.0,91,71,39,29.72,29.66,0,0,0,0.00
2014-8-18,86.0,76.3,72.0,73.0,69.9,65.3,94,81,55,29.66,29.51,0,0,0,0.00
2014-8-19,84.6,75.7,69.6,73.0,69.9,66.2,97,83,59,29.60,29.48,0,0,0,0.00
2014-8-20,88.3,78.0,71.6,73.6,69.2,64.2,94,76,50,29.75,29.57,0,0,0,0.00
2014-8-21,88.9,79.4,72.5,74.3,69.4,63.3,95,74,45,29.81,29.69,0,0,0,0.00
2014-8-22,90.0,78.6,72.0,74.1,71.0,66.6,92,79,48,29.75,29.66,0,0,0,0.00
2014-8-23,84.4,76.8,73.6,75.4,71.8,67.8,95,85,65,29.69,29.60,0,0,0,0.00
2014-8-24,78.6,73.2,67.8,68.0,62.7,57.4,86,70,51,29.81,29.66,0,0,0,0.00
2014-8-25,78.3,69.6,60.6,61.3,58.8,55.6,91,70,49,29.84,29.78,0,0,0,0.00
2014-8-26,81.9,70.5,61.5,63.1,59.1,54.7,91,69,43,29.87,29.78,0,0,0,0.00
2014-8-27,85.3,72.1,59.7,64.2,58.1,52.7,92,65,38,29.78,29.69,0,0,0,0.00
2014-8-28,90.1,76.0,65.1,70.9,64.7,58.1,88,70,43,29.72,29.66,0,0,0,0.00
2014-8-29,84.0,76.8,73.0,72.0,69.2,67.6,89,78,61,29.93,29.72,0,0,0,0.00
2014-8-30,89.4,78.7,72.0,71.8,68.1,62.6,88,72,43,29.96,29.87,0,0,0,0.00
2014-8-31,90.0,80.2,72.9,72.9,68.2,62.6,92,69,42,29.96,29.81,0,0,0,0.00
2014-9-1,92.8,81.2,73.9,72.7,68.1,61.3,90,67,38,29.87,29.78,0,0,0,0.00
2014-9-2,95.2,82.8,73.8,70.5,66.6,60.8,85,61,33,29.84,29.69,0,0,0,0.00
2014-9-3,90.9,79.7,72.5,70.7,65.8,60.3,86,65,37,29.90,29.72,0,0,0,0.00
2014-9-4,89.6,77.5,71.6,72.9,69.3,63.9,92,77,46,29.99,29.84,0,0,0,0.00
2014-9-5,90.3,79.0,71.1,75.7,68.7,62.6,97,74,41,29.96,29.84,0,0,0,0.00
2014-9-6,89.6,79.0,70.9,72.9,68.1,63.5,93,71,44,29.87,29.69,0,0,0,0.00
2014-9-7,79.7,75.3,71.4,70.7,67.9,63.7,88,78,69,29.81,29.66,0,0,0,0.00
2014-9-8,71.6,69.7,68.7,70.5,67.6,63.3,97,93,76,29.81,29.72,0,0,0,0.00
2014-9-9,72.7,69.3,66.0,68.5,67.2,65.5,98,93,85,29.81,29.72,0,0,0,0.00
2014-9-10,80.6,72.6,68.9,68.5,66.7,61.3,95,83,59,29.84,29.75,0,0,0,0.00
2014-9-11,87.3,76.4,67.5,71.2,68.2,65.3,97,78,52,29.75,29.66,0,0,0,0.00
2014-9-12,81.1,74.7,71.2,72.0,68.4,64.8,93,81,65,29.81,29.69,0,0,0,0.00
2014-9-13,77.9,72.6,69.8,74.5,68.7,64.8,95,88,77,29.87,29.75,0,0,0,0.00
2014-9-14,70.7,66.5,63.0,66.4,57.1,53.2,86,72,63,29.96,29.87,0,0,0,0.00
2014-9-15,74.1,67.6,63.5,65.5,61.2,58.3,88,81,62,29.93,29.81,0,0,0,0.00
2014-9-16,84.0,72.9,67.3,68.7,63.6,57.0,95,75,44,29.81,29.66,0,0,0,0.00
2014-9-17,80.1,71.8,67.6,66.0,62.2,58.6,87,73,51,29.72,29.63,0,0,0,0.00
2014-9-18,80.6,69.9,61.0,63.1,58.0,54.3,91,68,43,29.78,29.63,0,0,0,0.00
2014-9-19,81.3,70.8,65.5,59.4,55.0,47.7,78,59,37,29.96,29.75,0,0,0,0.00
2014-9-20,79.7,68.7,59.4,60.3,55.6,51.8,89,65,40,29.93,29.72,0,0,0,0.00
2014-9-21,86.0,73.5,63.5,65.5,59.8,56.3,90,65,38,29.72,29.54,0,0,0,0.00
2014-9-22,75.6,69.1,64.6,65.8,54.0,45.0,85,60,37,29.84,29.57,0,0,0,0.00
2014-9-23,64.9,60.6,56.1,55.8,47.9,41.2,88,64,50,29.99,29.84,0,0,0,0.00
2014-9-24,63.1,59.1,55.2,62.6,57.8,52.0,98,95,88,29.99,29.90,0,0,0,0.00
2014-9-25,67.1,64.7,63.1,64.2,63.1,62.1,98,94,87,29.96,29.87,0,0,0,0.00
2014-9-26,73.2,66.2,61.7,64.8,61.7,58.3,97,86,61,29.93,29.87,0,0,0,0.00
2014-9-27,75.2,64.9,56.8,62.2,57.9,54.9,97,80,53,29.90,29.84,0,0,0,0.00
2014-9-28,76.1,65.2,55.8,62.8,57.9,53.4,96,79,48,29.90,29.78,0,0,0,0.00
2014-9-29,70.3,66.2,63.9,65.1,62.8,58.8,97,89,68,29.78,29.66,0,0,0,0.00
2014-9-30,72.3,65.7,61.7,64.6,62.7,59.4,98,90,71,29.66,29.57,0,0,0,0.00
2014-10-1,74.5,65.2,57.6,66.7,60.9,55.8,98,87,68,29.75,29.63,0,0,0,0.00
2014-10-2,81.3,69.3,60.6,68.4,62.1,57.6,98,80,46,29.81,29.75,0,0,0,0.00
2014-10-3,83.3,72.3,64.0,67.3,61.8,51.6,95,73,35,29.78,29.48,0,0,0,0.00
2014-10-4,74.1,66.6,53.8,68.4,50.2,30.2,93,60,31,29.60,29.39,0,0,0,0.00
2014-10-5,65.7,53.1,41.9,40.1,35.3,30.2,78,53,31,29.69,29.57,0,0,0,0.00
2014-10-6,74.5,59.9,45.5,45.5,41.3,38.3,84,54,31,29.78,29.69,0,0,0,0.00
2014-10-7,79.2,67.1,55.4,54.7,49.1,41.7,81,54,34,29.84,29.69,0,0,0,0.00
2014-10-8,81.0,69.9,61.3,61.3,57.3,53.6,88,66,41,29.75,29.66,0,0,0,0.00
2014-10-9,77.7,64.2,51.6,55.4,48.5,43.3,90,60,30,29.87,29.75,0,0,0,0.00
2014-10-10,82.0,71.2,60.6,65.5,56.8,48.7,92,62,43,29.81,29.69,0,0,0,0.00
2014-10-11,83.1,70.3,60.8,68.2,64.2,57.6,96,82,51,29.84,29.66,0,0,0,0.00
2014-10-12,61.7,60.0,57.9,60.8,57.6,53.8,97,92,85,29.93,29.81,0,0,0,0.00
2014-10-13,79.3,68.7,61.3,68.0,64.1,60.8,98,86,62,29.93,29.87,0,0,0,0.00
2014-10-14,79.0,73.3,69.8,73.4,69.3,66.7,96,88,72,29.87,29.63,0,0,0,0.00
2014-10-15,74.5,66.2,59.5,69.4,61.9,56.1,95,86,70,29.66,29.54,0,0,0,0.00
2014-10-16,70.2,60.3,54.7,56.8,53.1,46.8,92,79,46,29.57,29.48,0,0,0,0.00
2014-10-17,73.0,60.4,49.5,54.5,49.9,45.3,96,71,40,29.63,29.51,0,0,0,0.00
2014-10-18,74.8,62.5,53.8,57.6,48.3,39.6,94,63,38,29.60,29.45,0,0,0,0.00
2014-10-19,65.3,55.5,46.8,43.2,40.0,35.8,80,58,36,29.81,29.60,0,0,0,0.00
2014-10-20,70.2,54.7,41.9,49.5,41.4,37.8,91,65,33,29.84,29.66,0,0,0,0.00
2014-10-21,73.2,61.4,51.4,53.2,47.1,36.5,88,62,38,29.66,29.51,0,0,0,0.00
2014-10-22,67.3,56.8,48.6,40.6,37.4,35.6,66,49,35,29.69,29.60,0,0,0,0.00
2014-10-23,68.2,55.3,43.5,42.6,39.3,36.9,84,57,36,29.69,29.57,0,0,0,0.00
2014-10-24,69.6,54.6,45.1,46.9,42.0,37.8,85,65,34,29.72,29.63,0,0,0,0.00
2014-10-25,69.3,54.0,41.4,47.8,42.1,37.6,92,67,35,29.69,29.54,0,0,0,0.00
2014-10-26,76.5,60.7,48.4,51.6,42.7,38.1,87,55,28,29.66,29.51,0,0,0,0.00
2014-10-27,75.0,55.6,41.0,50.7,40.2,35.6,91,62,25,29.78,29.66,0,0,0,0.00
2014-10-28,83.1,64.9,50.2,61.9,50.9,42.4,94,64,34,29.81,29.75,0,0,0,0.00
2014-10-29,77.7,66.7,57.9,58.5,54.3,50.9,85,66,40,29.75,29.60,0,0,0,0.00
2014-10-30,68.2,56.7,48.0,51.6,43.3,36.5,88,63,34,29.72,29.66,0,0,0,0.00
2014-10-31,63.7,51.3,42.3,43.5,40.4,37.2,87,68,40,29.66,29.45,0,0,0,0.00
2014-11-1,51.3,48.4,45.3,43.7,40.2,30.9,91,74,54,29.60,29.36,0,0,0,0.00
2014-11-2,54.3,45.3,34.9,31.5,24.2,20.1,56,44,33,29.96,29.60,0,0,0,0.00
2014-11-3,63.0,45.0,30.4,32.2,27.0,20.8,83,52,26,30.10,29.96,0,0,0,0.00
2014-11-4,66.2,53.7,39.4,36.0,30.7,25.3,69,43,27,30.01,29.90,0,0,0,0.00
2014-11-5,68.9,58.8,50.2,52.2,42.9,30.2,78,57,39,29.96,29.81,0,0,0,0.00
2014-11-6,68.9,62.2,49.6,63.0,54.6,41.5,90,76,64,29.81,29.42,0,0,0,0.00
2014-11-7,61.2,48.7,40.6,41.5,35.3,30.0,88,63,35,29.75,29.54,0,0,0,0.00
2014-11-8,59.9,45.9,33.3,40.1,32.3,26.1,87,62,35,29.81,29.63,0,0,0,0.00
2014-11-9,59.9,49.4,40.5,45.0,38.9,35.1,87,69,42,29.72,29.60,0,0,0,0.00
2014-11-10,66.0,48.6,36.3,47.8,37.3,32.4,94,68,36,29.81,29.72,0,0,0,0.00
2014-11-11,70.0,54.9,44.1,55.2,48.5,39.0,95,80,55,29.72,29.57,0,0,0,0.00
2014-11-12,75.0,60.5,50.5,59.4,48.8,37.2,98,70,37,29.72,29.57,0,0,0,0.00
2014-11-13,58.3,51.7,45.9,40.1,33.4,29.3,57,50,43,29.78,29.66,0,0,0,0.00
2014-11-14,46.4,39.5,31.8,29.7,20.8,10.8,72,48,35,29.99,29.69,0,0,0,0.00
2014-11-15,47.5,34.2,25.5,19.4,13.8,9.1,60,43,30,30.13,29.99,0,0,0,0.00
2014-11-16,48.6,39.9,28.2,40.5,26.8,16.9,87,61,38,30.04,29.75,0,0,0,0.00
2014-11-17,66.7,53.6,43.9,65.8,50.5,29.7,98,90,52,29.75,29.28,0,0,0,0.00
2014-11-18,45.1,34.0,24.4,30.0,14.7,9.1,60,45,33,29.99,29.54,0,0,0,0.00
2014-11-19,42.4,31.8,19.8,16.7,12.1,9.5,74,46,29,30.07,29.87,0,0,0,0.00
2014-11-20,59.0,43.3,29.3,28.8,20.5,12.7,65,41,29,29.87,29.66,0,0,0,0.00
2014-11-21,51.1,36.9,27.7,26.8,18.1,9.7,79,50,27,30.19,29.81,0,0,0,0.00
2014-11-22,54.5,36.4,22.6,22.3,16.4,12.7,74,47,26,30.25,29.96,0,0,0,0.00
2014-11-23,63.9,48.9,34.5,63.1,41.3,19.8,98,76,54,29.99,29.42,0,0,0,0.00
2014-11-24,71.8,65.6,60.4,63.9,60.3,56.1,98,84,61,29.63,29.42,0,0,0,0.00
2014-11-25,64.4,58.2,49.3,61.2,50.2,38.8,91,76,54,29.78,29.60,0,0,0,0.00
2014-11-26,50.0,45.2,37.4,49.5,43.4,35.6,98,93,87,29.75,29.54,0,0,0,0.00
2014-11-27,46.8,41.7,35.4,43.7,37.2,24.6,98,85,59,29.93,29.66,0,0,0,0.00
2014-11-28,46.6,35.4,27.9,25.2,20.3,16.7,76,55,37,30.04,29.90,0,0,0,0.00
2014-11-29,54.7,39.6,28.2,27.9,24.3,20.7,85,57,33,30.01,29.90,0,0,0,0.00
2014-11-30,65.3,51.4,35.1,42.1,34.9,26.2,88,55,35,29.99,29.87,0,0,0,0.00
2014-12-1,71.8,57.2,45.9,46.6,43.6,39.6,86,63,37,30.01,29.93,0,0,0,0.00
2014-12-2,53.1,49.8,46.9,50.5,43.7,39.7,96,80,63,30.13,29.99,0,0,0,0.00
2014-12-3,56.8,50.5,45.0,52.9,48.2,42.4,98,92,84,29.99,29.81,0,0,0,0.00
2014-12-4,56.7,49.2,42.1,52.7,37.4,28.4,98,68,38,30.07,29.93,0,0,0,0.00
2014-12-5,52.9,47.7,42.1,39.2,33.7,29.1,70,58,48,30.13,29.99,0,0,0,0.00
2014-12-6,56.3,52.2,47.7,55.4,47.8,38.8,98,85,70,30.01,29.72,0,0,0,0.00
2014-12-7,53.2,46.0,37.6,49.8,27.8,16.7,88,50,36,30.10,29.78,0,0,0,0.00
2014-12-8,46.6,40.1,35.8,35.1,24.9,16.7,88,55,43,30.07,29.81,0,0,0,0.00
2014-12-9,44.6,40.8,36.1,43.0,38.8,33.8,96,93,87,29.81,29.57,0,0,0,0.00
2014-12-10,51.8,41.1,31.8,38.7,28.7,20.1,98,65,38,29.69,29.57,0,0,0,0.00
2014-12-11,49.6,36.3,28.2,24.4,20.4,16.9,73,54,32,29.78,29.63,0,0,0,0.00
2014-12-12,56.3,39.6,26.4,24.3,18.8,14.2,68,45,27,29.90,29.75,0,0,0,0.00
2014-12-13,60.3,41.4,28.9,28.0,23.1,18.9,73,51,28,29.84,29.69,0,0,0,0.00
2014-12-14,56.7,41.2,29.5,31.8,26.9,20.8,79,59,36,29.75,29.66,0,0,0,0.00
2014-12-15,60.1,42.7,30.7,41.9,31.6,26.4,91,68,37,29.81,29.69,0,0,0,0.00
2014-12-16,52.2,44.4,35.8,49.6,41.3,30.4,98,89,56,29.75,29.54,0,0,0,0.00
2014-12-17,60.8,46.9,37.8,45.0,36.6,31.8,98,71,37,29.78,29.66,0,0,0,0.00
2014-12-18,52.9,40.9,31.1,34.9,27.8,23.2,93,63,36,29.87,29.72,0,0,0,0.00
2014-12-19,55.0,43.5,36.7,30.9,25.5,21.4,70,50,31,29.87,29.75,0,0,0,0.00
2014-12-20,39.2,37.5,35.1,33.4,29.0,22.1,80,71,56,29.99,29.84,0,0,0,0.00
2014-12-21,50.0,43.4,38.7,34.5,32.0,26.8,83,66,49,29.99,29.87,0,0,0,0.00
2014-12-22,43.0,38.1,36.3,37.4,35.3,28.6,97,90,57,29.87,29.69,0,0,0,0.00
2014-12-23,46.2,41.2,37.4,45.7,40.6,36.7,98,98,97,29.75,29.60,0,0,0,0.00
2014-12-24,65.7,56.4,46.2,65.1,55.5,45.7,98,97,92,29.60,29.36,0,0,0,0.00
2014-12-25,64.4,52.3,35.4,62.1,38.7,28.2,95,63,36,29.93,29.39,0,0,0,0.00
2014-12-26,58.8,41.5,30.6,41.9,30.8,27.7,95,70,36,30.01,29.90,0,0,0,0.00
2014-12-27,61.9,46.3,31.5,44.4,33.7,28.9,98,66,35,30.01,29.84,0,0,0,0.00
2014-12-28,61.3,55.6,50.4,55.9,49.0,34.9,97,79,54,29.84,29.66,0,0,0,0.00
2014-12-29,54.5,50.0,41.5,53.8,49.0,40.5,98,96,93,29.87,29.72,0,0,0,0.00
2014-12-30,41.5,37.9,29.8,40.5,34.4,27.0,96,87,71,30.07,29.84,0,0,0,0.00
2014-12-31,45.9,34.1,27.5,34.0,24.2,18.5,95,71,37,30.13,30.01,0,0,0,0.00
2015-1-1,51.3,37.8,25.0,31.1,25.3,20.8,89,63,38,30.01,29.87,0,0,0,0.00
2015-1-2,54.7,48.4,43.0,40.1,34.5,30.2,76,59,45,30.01,29.87,0,0,0,0.00